Time;durP1;ratioP1;P1;durP2;ratioP2;P2;SDS_P1;SDS_P2;PMS_P1;PMS_P2;Temp;Humidity;BMP_temperature;BMP_pressure;BME280_temperature;BME280_humidity;BME280_pressure;Samples;Min_cycle;Max_cycle;Signal;HPM_P1;HPM_P2
2022/02/11 00:00:53;;;;;;;9.30;6.88;;;;;;;14.10;41.82;95728.84;5053240;28;20037;-69
2022/02/11 00:08:29;;;;;;;9.95;7.07;;;;;;;13.96;42.52;95718.28;5053178;28;20063;-70
2022/02/11 00:10:55;;;;;;;8.88;6.95;;;;;;;13.92;42.33;95717.34;5053318;28;20060;-69
2022/02/11 00:13:20;;;;;;;9.68;6.88;;;;;;;13.89;42.25;95703.78;5037118;28;20057;-69
2022/02/11 00:15:47;;;;;;;8.05;6.22;;;;;;;13.89;42.70;95707.25;5052997;28;20028;-69
2022/02/11 00:18:15;;;;;;;9.07;6.35;;;;;;;13.90;42.68;95705.38;5053802;28;20029;-69
2022/02/11 00:20:45;;;;;;;7.97;6.43;;;;;;;13.73;42.83;95676.69;5034974;28;20029;-69
2022/02/11 00:23:10;;;;;;;9.32;7.00;;;;;;;13.66;43.18;95689.72;5035607;28;20028;-69
2022/02/11 00:25:44;;;;;;;8.30;5.82;;;;;;;13.70;43.33;95693.34;5034965;28;20065;-69
2022/02/11 00:33:29;;;;;;;11.02;6.55;;;;;;;13.71;43.16;95702.94;5053252;28;20389;-70
2022/02/11 00:35:59;;;;;;;10.27;6.93;;;;;;;13.70;43.52;95702.16;5034903;28;20065;-69
2022/02/11 00:39:04;;;;;;;12.35;6.55;;;;;;;13.44;43.81;95661.19;5034617;28;20029;-70
2022/02/11 00:47:07;;;;;;;9.95;6.90;;;;;;;13.39;44.70;95683.50;5052987;28;20074;-70
2022/02/11 01:03:11;;;;;;;9.48;7.03;;;;;;;13.20;46.69;95653.50;5052892;28;20086;-69
2022/02/11 01:05:37;;;;;;;10.82;7.90;;;;;;;13.31;47.01;95654.06;5052380;28;20072;-69
2022/02/11 01:08:02;;;;;;;13.00;6.75;;;;;;;13.31;47.21;95662.06;5033477;28;20043;-68
2022/02/11 01:10:28;;;;;;;11.88;7.05;;;;;;;13.15;47.08;95670.44;5033937;28;20055;-68
2022/02/11 01:12:54;;;;;;;10.80;7.25;;;;;;;12.16;48.32;95648.28;5060151;28;20071;-68
2022/02/11 01:15:21;;;;;;;11.45;7.32;;;;;;;12.79;48.60;95669.78;5042139;28;20488;-69
2022/02/11 01:17:54;;;;;;;10.38;6.70;;;;;;;12.85;47.89;95634.66;5052205;28;20396;-68
2022/02/11 01:20:29;;;;;;;12.30;7.07;;;;;;;13.29;47.54;95651.69;5051581;28;20029;-68
2022/02/11 01:28:59;;;;;;;9.10;7.10;;;;;;;12.50;49.00;95652.34;5059338;28;20515;-68
2022/02/11 01:51:44;;;;;;;13.38;7.60;;;;;;;13.26;47.45;95634.41;5051122;28;20401;-68
2022/02/11 01:54:39;;;;;;;10.63;7.47;;;;;;;13.33;47.32;95620.59;5033261;28;20021;-68
2022/02/11 02:21:31;;;;;;;11.23;7.85;;;;;;;13.48;48.04;95606.03;5050018;28;20504;-71
2022/02/11 02:29:35;;;;;;;11.30;7.72;;;;;;;13.35;48.09;95618.41;5055679;28;21076;-70
2022/02/11 02:37:45;;;;;;;18.60;8.75;;;;;;;12.60;51.38;95619.28;4988925;28;20031;-68
2022/02/11 02:56:39;;;;;;;15.38;11.07;;;;;;;11.94;54.75;95587.72;5050479;28;20441;-68
2022/02/11 02:56:51;;;;;;;17.50;10.13;;;;;;;12.40;54.47;95592.00;5050990;28;20444;-70
2022/02/11 02:59:36;;;;;;;16.60;10.73;;;;;;;12.18;55.29;95603.47;5050583;28;20107;-70
2022/02/11 03:02:11;;;;;;;14.27;9.88;;;;;;;11.37;56.02;95602.53;5050771;28;20688;-70
2022/02/11 03:16:11;;;;;;;19.85;10.27;;;;;;;10.71;59.49;95599.22;5050585;28;20047;-70
2022/02/11 03:59:11;;;;;;;5.82;4.85;;;;;;;9.64;62.66;95606.94;5055371;28;20555;-70
2022/02/11 04:21:08;;;;;;;5.53;4.13;;;;;;;10.25;62.08;95629.22;5072705;28;20031;-68
2022/02/11 04:56:12;;;;;;;3.60;3.30;;;;;;;9.33;62.22;95643.69;5052409;28;20432;-67
2022/02/11 05:01:21;;;;;;;4.65;3.22;;;;;;;9.36;62.29;95640.47;5060638;28;20040;-69
2022/02/11 05:03:46;;;;;;;4.35;3.20;;;;;;;9.19;62.88;95631.38;5034114;28;20397;-67
2022/02/11 05:06:12;;;;;;;5.35;3.42;;;;;;;9.26;62.66;95656.50;5052414;28;20473;-68
2022/02/11 05:08:38;;;;;;;3.80;3.40;;;;;;;9.15;63.67;95647.06;5051816;28;20033;-67
2022/02/11 05:11:09;;;;;;;3.67;3.05;;;;;;;8.81;64.46;95660.44;5034279;28;20132;-68
2022/02/11 05:13:37;;;;;;;3.50;3.20;;;;;;;9.40;63.30;95651.31;5041017;28;20040;-68
2022/02/11 05:16:04;;;;;;;3.60;3.30;;;;;;;9.29;63.08;95642.69;5052046;28;20469;-67
2022/02/11 05:18:29;;;;;;;3.95;3.45;;;;;;;8.88;63.56;95646.84;5033946;28;20397;-67
2022/02/11 05:20:54;;;;;;;3.92;3.53;;;;;;;9.28;63.38;95653.59;5034044;28;20033;-68
2022/02/11 05:23:20;;;;;;;4.85;3.45;;;;;;;9.14;63.61;95642.06;5051753;28;20078;-68
2022/02/11 05:25:46;;;;;;;4.05;3.47;;;;;;;8.64;65.38;95647.56;5052151;28;20474;-68
2022/02/11 05:28:12;;;;;;;3.33;3.03;;;;;;;8.60;65.94;95675.72;5057063;28;20111;-68
2022/02/11 05:30:37;;;;;;;6.25;3.90;;;;;;;8.31;67.38;95679.09;5033817;28;20025;-68
2022/02/11 05:33:04;;;;;;;5.82;4.63;;;;;;;8.46;66.79;95685.38;5033958;28;20020;-68
2022/02/11 05:35:31;;;;;;;5.82;3.47;;;;;;;8.73;67.03;95687.53;5051510;28;20025;-68
2022/02/11 05:37:56;;;;;;;5.18;4.30;;;;;;;8.07;68.12;95659.63;5051758;28;20411;-68
2022/02/11 05:40:22;;;;;;;4.13;3.72;;;;;;;8.48;67.28;95686.66;5051244;28;20158;-68
2022/02/11 05:42:48;;;;;;;5.30;4.35;;;;;;;8.49;68.00;95687.47;5035115;28;20055;-68
2022/02/11 05:45:13;;;;;;;5.82;3.55;;;;;;;8.11;68.10;95689.03;5055481;28;20048;-68
2022/02/11 05:47:39;;;;;;;5.35;4.53;;;;;;;8.14;68.33;95685.81;5070443;28;20482;-68
2022/02/11 05:50:04;;;;;;;4.82;3.63;;;;;;;7.69;69.82;95698.25;5053267;28;20117;-69
2022/02/11 05:52:31;;;;;;;15.60;7.28;;;;;;;8.04;70.50;95715.84;5071221;28;20028;-68
2022/02/11 05:54:57;;;;;;;15.07;9.07;;;;;;;7.07;71.89;95732.03;5052889;28;20035;-68
2022/02/11 05:57:22;;;;;;;70.40;27.25;;;;;;;8.04;69.50;95731.72;5071044;28;20032;-69
2022/02/11 05:59:49;;;;;;;56.90;27.63;;;;;;;7.62;69.14;95725.00;5040187;28;20017;-69
2022/02/11 06:02:15;;;;;;;52.95;21.75;;;;;;;7.14;70.86;95745.75;5051206;28;20029;-68
2022/02/11 06:04:40;;;;;;;52.28;19.73;;;;;;;6.71;71.48;95731.25;5051222;28;20051;-68
2022/02/11 06:07:05;;;;;;;54.53;26.90;;;;;;;7.22;71.24;95760.31;5033227;28;20021;-67
2022/02/11 06:09:31;;;;;;;44.97;21.05;;;;;;;6.41;72.87;95761.88;5033070;28;20027;-69
2022/02/11 06:11:56;;;;;;;55.80;24.95;;;;;;;6.33;73.01;95769.53;5051244;28;20021;-68
2022/02/11 06:14:21;;;;;;;58.88;23.27;;;;;;;6.47;72.43;95767.97;5037886;28;20033;-68
2022/02/11 06:16:47;;;;;;;55.80;25.52;;;;;;;6.53;71.87;95782.78;5050583;28;20440;-68
2022/02/11 06:19:12;;;;;;;57.17;23.38;;;;;;;6.59;72.18;95783.56;5050256;28;20075;-68
2022/02/11 06:21:37;;;;;;;64.65;26.50;;;;;;;6.35;72.14;95788.56;5050505;28;20104;-67
2022/02/11 06:24:03;;;;;;;39.78;17.15;;;;;;;6.32;73.31;95802.28;5050538;28;20082;-68
2022/02/11 06:26:29;;;;;;;55.53;24.67;;;;;;;6.72;71.31;95780.44;5032353;28;20130;-69
2022/02/11 06:28:57;;;;;;;45.00;19.55;;;;;;;6.25;73.71;95792.78;5036512;28;20044;-67
2022/02/11 06:31:23;;;;;;;62.13;25.52;;;;;;;6.80;72.27;95818.75;5032178;28;20074;-68
2022/02/11 06:33:50;;;;;;;32.05;15.25;;;;;;;6.17;73.55;95824.97;5050257;28;20094;-68
2022/02/11 06:36:16;;;;;;;45.75;21.23;;;;;;;6.43;72.50;95802.03;5050471;28;20094;-68
2022/02/11 06:38:41;;;;;;;37.50;17.40;;;;;;;6.30;73.62;95830.84;5032135;28;20029;-67
2022/02/11 06:41:07;;;;;;;37.55;19.05;;;;;;;6.60;72.33;95838.03;5032083;28;20049;-67
2022/02/11 06:43:32;;;;;;;48.20;23.30;;;;;;;6.80;72.79;95850.50;5036119;28;20020;-69
2022/02/11 06:45:59;;;;;;;39.67;16.77;;;;;;;6.28;73.01;95860.13;5058243;28;20458;-69
2022/02/11 06:48:25;;;;;;;55.25;24.85;;;;;;;6.75;71.04;95838.06;5049637;28;20032;-68
2022/02/11 06:50:54;;;;;;;46.05;21.13;;;;;;;6.45;72.84;95854.66;5050108;28;20017;-69
2022/02/11 06:53:20;;;;;;;43.03;19.52;;;;;;;6.68;71.27;95885.09;5050124;28;20029;-68
2022/02/11 06:55:47;;;;;;;32.13;14.68;;;;;;;6.13;71.95;95889.91;5050891;28;20477;-73
2022/02/11 06:58:13;;;;;;;14.98;8.95;;;;;;;5.81;73.85;95912.94;5052191;28;20038;-67
2022/02/11 07:00:43;;;;;;;5.13;3.70;;;;;;;5.32;73.89;95911.25;5060035;28;20025;-68
2022/02/11 07:03:10;;;;;;;28.33;9.48;;;;;;;5.47;73.34;95936.97;5053025;28;20025;-68
2022/02/11 07:05:36;;;;;;;6.07;4.18;;;;;;;5.33;73.28;95951.66;5033146;28;20656;-67
2022/02/11 07:08:04;;;;;;;10.35;6.47;;;;;;;5.40;73.73;95937.19;5054078;28;20048;-69
2022/02/11 07:10:29;;;;;;;13.23;6.88;;;;;;;5.39;73.07;95955.91;5053607;28;20091;-69
2022/02/11 07:12:54;;;;;;;8.10;4.85;;;;;;;5.22;73.97;95942.84;5036286;28;20025;-67
2022/02/11 07:15:20;;;;;;;17.08;10.05;;;;;;;5.74;72.52;95943.00;5056360;28;20489;-67
2022/02/11 07:17:45;;;;;;;16.40;11.55;;;;;;;5.74;73.05;95973.91;5054116;28;20521;-72
2022/02/11 07:20:11;;;;;;;16.50;6.93;;;;;;;5.25;74.62;95962.66;5053635;28;20108;-72
2022/02/11 07:22:40;;;;;;;13.32;6.28;;;;;;;5.18;74.96;95968.91;5053743;28;20060;-71
2022/02/11 07:25:07;;;;;;;23.42;11.15;;;;;;;5.54;73.76;95989.56;5053835;28;20039;-72
2022/02/11 07:27:33;;;;;;;6.80;3.97;;;;;;;4.88;75.10;95994.97;5035379;28;20029;-70
2022/02/11 07:29:58;;;;;;;23.92;13.00;;;;;;;5.91;73.03;95987.78;5037074;28;20079;-71
2022/02/11 07:32:25;;;;;;;22.38;12.07;;;;;;;5.61;72.89;95992.78;5035392;28;20025;-70
2022/02/11 07:34:52;;;;;;;19.17;11.30;;;;;;;5.30;73.34;95952.94;5053365;28;20443;-70
2022/02/11 07:37:17;;;;;;;8.27;5.28;;;;;;;5.42;72.64;96042.47;5035588;28;20021;-70
2022/02/11 07:39:43;;;;;;;17.88;10.32;;;;;;;5.36;73.10;95985.44;5053228;28;20029;-72
2022/02/11 07:42:09;;;;;;;18.92;12.45;;;;;;;5.51;72.67;96014.59;5035483;28;20025;-68
2022/02/11 07:44:34;;;;;;;24.17;12.85;;;;;;;5.54;72.56;96019.38;5054433;28;20358;-68
2022/02/11 07:47:00;;;;;;;25.17;13.38;;;;;;;5.47;72.66;96010.84;5053229;28;20025;-68
2022/02/11 07:49:25;;;;;;;3.72;3.08;;;;;;;4.90;74.14;96030.56;5035134;28;20033;-68
2022/02/11 07:51:54;;;;;;;10.73;7.25;;;;;;;5.27;74.96;96058.13;5053184;28;20021;-70
2022/02/11 07:54:20;;;;;;;10.55;8.27;;;;;;;5.68;74.44;96041.69;5053050;28;20032;-68
2022/02/11 07:56:46;;;;;;;13.52;10.77;;;;;;;6.07;73.63;96045.97;5053500;28;20040;-68
2022/02/11 07:59:12;;;;;;;6.97;5.65;;;;;;;5.37;71.74;96011.56;5053571;28;20104;-68
2022/02/11 08:01:37;;;;;;;13.02;8.30;;;;;;;5.97;71.77;96110.06;5052730;28;20104;-68
2022/02/11 08:04:03;;;;;;;12.82;8.13;;;;;;;5.44;72.46;96101.88;5053151;28;20045;-69
2022/02/11 08:06:28;;;;;;;14.68;10.02;;;;;;;5.54;71.40;96098.56;5052880;28;20040;-68
2022/02/11 08:08:54;;;;;;;9.75;5.78;;;;;;;5.16;72.75;96126.59;5052599;28;20077;-68
2022/02/11 08:11:19;;;;;;;14.50;11.18;;;;;;;5.36;72.09;96099.66;5040793;28;20044;-67
2022/02/11 08:13:45;;;;;;;15.05;8.85;;;;;;;5.24;72.17;96132.50;5068427;28;20031;-67
2022/02/11 08:16:10;;;;;;;10.27;6.70;;;;;;;4.98;72.29;96148.00;5052790;28;20027;-67
2022/02/11 08:18:35;;;;;;;4.43;3.83;;;;;;;4.96;71.31;96194.88;5052562;28;20013;-68
2022/02/11 08:21:02;;;;;;;9.18;7.13;;;;;;;4.93;72.70;96184.84;5053280;28;20025;-67
2022/02/11 08:23:27;;;;;;;5.43;4.05;;;;;;;4.44;72.45;96208.34;5052726;28;20065;-67
2022/02/11 08:25:53;;;;;;;5.13;3.55;;;;;;;4.50;73.90;96217.91;5052878;28;20051;-69
2022/02/11 08:28:18;;;;;;;11.45;9.05;;;;;;;5.09;71.46;96185.84;5051656;28;20090;-67
2022/02/11 08:30:49;;;;;;;7.55;5.72;;;;;;;4.47;72.96;96186.78;5049672;28;20021;-67
2022/02/11 08:33:15;;;;;;;12.63;8.88;;;;;;;5.04;70.64;96186.56;5051242;28;20127;-67
2022/02/11 08:35:40;;;;;;;3.60;2.55;;;;;;;4.09;73.06;96205.88;5051362;28;20025;-67
2022/02/11 08:38:07;;;;;;;9.45;6.15;;;;;;;4.52;73.92;96226.38;5051501;28;20100;-67
2022/02/11 08:40:35;;;;;;;15.60;10.27;;;;;;;5.34;70.33;96240.78;5051031;28;20405;-67
2022/02/11 08:43:02;;;;;;;5.82;4.85;;;;;;;4.17;74.13;96272.13;5051472;28;20029;-68
2022/02/11 08:45:27;;;;;;;12.80;9.18;;;;;;;4.73;72.84;96250.44;5058382;28;20021;-67
2022/02/11 08:47:53;;;;;;;6.05;5.30;;;;;;;4.75;72.05;96264.16;5050971;28;20040;-68
2022/02/11 08:50:19;;;;;;;16.55;9.93;;;;;;;5.07;71.84;96281.03;5050759;28;20021;-67
2022/02/11 08:52:46;;;;;;;9.07;7.18;;;;;;;4.23;73.39;96224.81;5051039;28;20642;-68
2022/02/11 08:55:12;;;;;;;16.70;8.88;;;;;;;4.92;72.47;96278.97;5051031;28;20036;-67
2022/02/11 08:57:43;;;;;;;13.13;8.73;;;;;;;5.02;70.95;96277.53;5051149;28;20385;-69
2022/02/11 09:00:09;;;;;;;18.15;7.72;;;;;;;4.95;72.74;96289.00;5064396;28;20027;-67
2022/02/11 09:02:35;;;;;;;7.93;6.15;;;;;;;4.39;72.99;96313.63;5062700;28;20653;-67
2022/02/11 09:05:00;;;;;;;15.90;9.25;;;;;;;4.73;72.08;96303.16;5071258;28;20077;-67
2022/02/11 09:07:26;;;;;;;6.70;5.75;;;;;;;4.27;71.85;96286.53;5070803;28;20032;-67
2022/02/11 09:09:51;;;;;;;12.85;9.32;;;;;;;4.62;70.83;96252.91;5052826;28;20024;-68
2022/02/11 09:12:16;;;;;;;12.05;8.27;;;;;;;4.64;72.50;96316.72;5070573;28;20060;-67
2022/02/11 09:14:42;;;;;;;13.13;8.88;;;;;;;4.00;73.13;96284.47;5067268;28;20025;-66
2022/02/11 09:17:07;;;;;;;7.93;6.40;;;;;;;4.21;72.38;96311.19;5050497;28;20021;-70
2022/02/11 09:19:32;;;;;;;5.38;3.65;;;;;;;4.60;72.95;96349.84;5050516;28;20017;-70
2022/02/11 09:21:58;;;;;;;17.73;12.90;;;;;;;5.12;71.42;96310.13;5050675;28;20473;-67
2022/02/11 09:24:23;;;;;;;13.32;9.68;;;;;;;5.13;71.69;96309.09;5050883;28;20033;-67
2022/02/11 09:26:49;;;;;;;15.23;10.98;;;;;;;5.45;70.52;96359.41;5010085;28;1167596;-69
2022/02/11 09:29:14;;;;;;;16.60;12.18;;;;;;;5.79;69.41;96340.91;5055410;28;20182;-68
2022/02/11 09:31:41;;;;;;;18.40;12.48;;;;;;;5.89;68.90;96329.69;5051697;28;20036;-68
2022/02/11 09:34:06;;;;;;;25.13;13.27;;;;;;;5.55;70.29;96342.16;5051429;28;20021;-69
2022/02/11 09:36:34;;;;;;;17.63;10.93;;;;;;;5.47;70.81;96319.59;5051459;28;20031;-69
2022/02/11 09:39:03;;;;;;;6.07;4.80;;;;;;;4.96;70.59;96347.81;5051236;28;20032;-73
2022/02/11 09:41:29;;;;;;;9.15;6.70;;;;;;;4.60;69.24;96289.22;5033105;28;20041;-69
2022/02/11 09:43:56;;;;;;;3.03;2.72;;;;;;;4.04;67.69;96287.41;5053157;28;20719;-68
2022/02/11 09:46:21;;;;;;;7.57;5.35;;;;;;;4.52;67.59;96265.91;5062068;28;20016;-67
2022/02/11 09:48:48;;;;;;;12.73;8.35;;;;;;;5.27;67.45;96380.75;5050391;28;20485;-68
2022/02/11 09:51:13;;;;;;;3.45;3.03;;;;;;;4.61;67.18;96309.28;5050876;28;20079;-69
2022/02/11 09:53:39;;;;;;;11.38;8.18;;;;;;;5.63;66.19;96374.22;5050994;28;20489;-68
2022/02/11 09:56:05;;;;;;;8.90;7.13;;;;;;;5.67;65.78;96341.00;5051097;28;20020;-68
2022/02/11 09:58:31;;;;;;;6.85;5.45;;;;;;;5.42;67.61;96401.31;5050697;28;20032;-68
2022/02/11 10:00:57;;;;;;;4.32;3.75;;;;;;;4.61;65.88;96319.03;5054830;28;20025;-69
2022/02/11 10:03:29;;;;;;;5.88;5.22;;;;;;;5.17;65.33;96344.50;5050538;28;20075;-72
2022/02/11 10:05:58;;;;;;;5.32;4.93;;;;;;;5.62;66.70;96414.81;5032827;28;20017;-70
2022/02/11 10:08:25;;;;;;;5.32;4.82;;;;;;;5.19;65.04;96350.31;5050446;28;20021;-70
2022/02/11 10:10:55;;;;;;;4.63;3.80;;;;;;;5.14;64.43;96431.19;5050445;28;20029;-70
2022/02/11 10:13:26;;;;;;;5.18;4.57;;;;;;;6.05;64.45;96408.09;5050865;28;20040;-70
2022/02/11 10:15:57;;;;;;;2.70;2.50;;;;;;;5.11;63.48;96414.00;5054105;28;20025;-71
2022/02/11 10:18:27;;;;;;;4.40;4.00;;;;;;;5.54;63.12;96412.59;5050243;28;20075;-71
2022/02/11 10:21:05;;;;;;;4.55;4.10;;;;;;;5.95;63.31;96416.69;5032814;28;20086;-71
2022/02/11 10:23:33;;;;;;;3.35;2.85;;;;;;;5.13;61.67;96382.94;5050480;28;20057;-71
2022/02/11 10:26:05;;;;;;;2.35;2.15;;;;;;;4.89;62.63;96468.47;5050535;28;20028;-71
2022/02/11 10:28:52;;;;;;;3.95;2.70;;;;;;;4.76;64.67;96447.63;5050454;28;20040;-72
2022/02/11 10:31:30;;;;;;;5.47;3.90;;;;;;;5.22;61.47;96465.91;5053204;28;20479;-71
2022/02/11 10:34:03;;;;;;;1.92;1.70;;;;;;;4.91;61.16;96464.56;5032581;28;20029;-72
2022/02/11 10:36:41;;;;;;;2.53;2.05;;;;;;;4.87;60.77;96473.19;5032770;28;20029;-71
2022/02/11 10:39:15;;;;;;;4.97;2.92;;;;;;;5.18;59.22;96477.19;5032898;28;20693;-72
2022/02/11 10:41:49;;;;;;;3.00;2.78;;;;;;;4.75;61.92;96435.50;5031573;28;20042;-70
2022/02/11 10:44:17;;;;;;;2.60;2.40;;;;;;;5.24;59.47;96464.88;5034501;28;20079;-72
2022/02/11 10:46:48;;;;;;;3.13;2.83;;;;;;;4.99;60.26;96454.66;5050376;28;20567;-72
2022/02/11 10:49:15;;;;;;;2.97;2.67;;;;;;;5.26;59.47;96447.75;5050093;28;20037;-70
2022/02/11 10:51:50;;;;;;;4.10;2.83;;;;;;;5.38;59.94;96445.06;5032277;28;20131;-70
2022/02/11 10:54:35;;;;;;;3.78;3.33;;;;;;;6.09;57.80;96459.41;5050349;28;20113;-73
2022/02/11 10:57:04;;;;;;;3.53;3.22;;;;;;;5.81;58.90;96459.47;5032142;28;20059;-72
2022/02/11 10:59:35;;;;;;;1.92;1.75;;;;;;;5.31;58.61;96462.88;5033928;28;20020;-71
2022/02/11 11:02:03;;;;;;;3.70;2.77;;;;;;;5.94;57.89;96477.66;5031829;28;20040;-71
2022/02/11 11:04:29;;;;;;;4.57;2.90;;;;;;;6.29;58.46;96452.78;5050132;28;20025;-71
2022/02/11 11:06:56;;;;;;;3.70;2.80;;;;;;;6.82;57.21;96481.22;5050170;28;20097;-70
2022/02/11 11:09:25;;;;;;;2.95;2.20;;;;;;;6.31;54.96;96487.69;5049627;28;20032;-71
2022/02/11 11:11:52;;;;;;;3.75;2.42;;;;;;;6.51;54.58;96435.91;5031732;28;20032;-72
2022/02/11 11:14:18;;;;;;;1.60;1.50;;;;;;;5.35;55.53;96488.56;5033160;28;20033;-70
2022/02/11 11:16:46;;;;;;;4.63;2.70;;;;;;;6.52;54.11;96463.13;5049811;28;20026;-70
2022/02/11 11:19:13;;;;;;;5.00;1.95;;;;;;;6.18;54.67;96473.78;5049903;28;20516;-69
2022/02/11 11:21:43;;;;;;;3.17;1.65;;;;;;;5.84;55.57;96480.13;5050014;28;20047;-69
2022/02/11 11:24:12;;;;;;;3.45;2.47;;;;;;;6.64;54.03;96473.59;5031871;28;20021;-71
2022/02/11 11:26:42;;;;;;;5.18;2.33;;;;;;;6.37;54.42;96476.94;5050435;28;20355;-72
2022/02/11 11:29:18;;;;;;;5.75;2.97;;;;;;;6.90;54.36;96464.09;5031368;28;20045;-73
2022/02/11 11:31:55;;;;;;;2.33;1.92;;;;;;;6.15;54.41;96470.84;5031577;28;20017;-68
2022/02/11 11:34:21;;;;;;;1.85;1.38;;;;;;;5.86;53.02;96470.13;5050047;28;20093;-68
2022/02/11 11:36:50;;;;;;;5.22;2.00;;;;;;;5.96;52.96;96454.44;5049720;28;20489;-71
2022/02/11 11:39:18;;;;;;;3.47;1.77;;;;;;;5.29;53.62;96449.94;5049678;28;20490;-70
2022/02/11 11:42:17;;;;;;;3.63;1.88;;;;;;;6.07;52.96;96458.03;5049478;28;20025;-71
2022/02/11 11:44:50;;;;;;;1.60;1.17;;;;;;;5.95;50.68;96460.78;5049707;28;20037;-69
2022/02/11 11:47:41;;;;;;;4.65;1.40;;;;;;;5.96;50.97;96451.81;5049416;28;20029;-69
2022/02/11 11:50:08;;;;;;;4.22;1.65;;;;;;;6.16;50.00;96448.66;5049771;28;20029;-68
2022/02/11 11:52:45;;;;;;;2.75;1.85;;;;;;;6.07;51.49;96465.97;5051606;28;20060;-70
2022/02/11 11:55:17;;;;;;;3.67;2.42;;;;;;;6.33;51.70;96456.53;5053519;28;20021;-70
2022/02/11 11:57:42;;;;;;;;;;;;;;;6.49;52.21;96461.75;5035943;28;20029;-73
2022/02/11 12:00:08;;;;;;;2.83;2.00;;;;;;;6.71;51.65;96435.34;5059520;28;19921;-72
2022/02/11 12:02:35;;;;;;;3.55;2.42;;;;;;;7.61;48.12;96445.47;5054561;28;20025;-72
2022/02/11 12:05:02;;;;;;;5.20;2.08;;;;;;;7.37;47.92;96453.75;5052845;28;20025;-71
2022/02/11 12:07:29;;;;;;;3.50;2.10;;;;;;;7.10;48.79;96435.22;5052997;28;20481;-70
2022/02/11 12:09:57;;;;;;;8.00;2.42;;;;;;;6.97;50.14;96452.28;5052679;28;20040;-73
2022/02/11 12:12:30;;;;;;;7.00;2.50;;;;;;;6.47;50.71;96418.13;5052985;28;20106;-71
2022/02/11 12:14:58;;;;;;;4.00;1.75;;;;;;;6.37;51.25;96447.09;5057580;28;20542;-69
2022/02/11 12:17:27;;;;;;;5.40;2.17;;;;;;;7.59;47.56;96432.50;5056120;28;20044;-70
2022/02/11 12:19:54;;;;;;;7.05;2.00;;;;;;;7.81;47.77;96413.84;5053102;28;20546;-71
2022/02/11 12:22:23;;;;;;;6.68;1.92;;;;;;;6.82;46.75;96378.06;5034629;28;20029;-70
2022/02/11 12:27:48;;;;;;;4.88;2.17;;;;;;;7.85;45.52;96446.72;5053131;28;20143;-71
2022/02/11 12:30:16;;;;;;;3.67;2.15;;;;;;;8.20;45.94;96458.63;5058924;28;20615;-68
2022/02/11 12:33:06;;;;;;;5.68;1.75;;;;;;;8.41;44.39;96452.41;5060840;28;20044;-68
2022/02/11 12:35:34;;;;;;;4.63;1.77;;;;;;;7.90;44.79;96427.41;5034673;28;20488;-69
2022/02/11 12:38:03;;;;;;;2.83;1.60;;;;;;;7.93;44.55;96382.63;5034792;28;20439;-68
2022/02/11 12:40:34;;;;;;;5.32;1.90;;;;;;;9.01;44.97;96426.38;5052318;28;20052;-69
2022/02/11 12:43:07;;;;;;;3.13;1.60;;;;;;;7.50;45.87;96463.91;5052450;28;20021;-67
2022/02/11 12:45:35;;;;;;;1.83;1.10;;;;;;;7.32;45.37;96477.53;5059135;28;20040;-69
2022/02/11 12:48:01;;;;;;;3.30;1.50;;;;;;;7.84;44.44;96468.16;5052095;28;20071;-69
2022/02/11 12:50:35;;;;;;;3.63;1.48;;;;;;;7.07;45.09;96403.97;5034318;28;20028;-68
2022/02/11 12:53:04;;;;;;;3.53;2.00;;;;;;;8.14;44.60;96473.69;5034278;28;20027;-68
2022/02/11 12:55:36;;;;;;;2.63;1.40;;;;;;;7.43;45.35;96428.91;5034765;28;20021;-69
2022/02/11 12:58:03;;;;;;;3.70;1.52;;;;;;;6.95;45.43;96411.25;5052195;28;20025;-70
2022/02/11 13:00:32;;;;;;;3.40;1.48;;;;;;;7.93;43.89;96470.06;5057613;28;20060;-71
2022/02/11 13:03:01;;;;;;;3.00;1.30;;;;;;;7.38;45.37;96473.88;5056500;28;20023;-77
2022/02/11 13:05:42;;;;;;;4.88;1.48;;;;;;;7.34;44.74;96471.97;5072607;28;20013;-76
2022/02/11 13:08:17;;;;;;;5.18;1.48;;;;;;;7.20;45.03;96471.56;5054459;28;20384;-75
2022/02/11 13:10:42;;;;;;;2.50;1.30;;;;;;;7.69;42.67;96464.34;5053932;28;20025;-75
2022/02/11 13:13:17;;;;;;;3.95;0.68;;;;;;;6.98;43.54;96458.38;5072262;28;20103;-74
2022/02/11 13:15:45;;;;;;;3.47;1.40;;;;;;;7.11;44.03;96452.69;5068531;28;20036;-75
2022/02/11 13:18:17;;;;;;;2.03;1.00;;;;;;;7.22;43.91;96478.22;5034460;28;20089;-75
2022/02/11 13:20:46;;;;;;;1.58;1.25;;;;;;;7.79;42.88;96439.78;5051665;28;20025;-70
2022/02/11 13:23:13;;;;;;;3.53;1.00;;;;;;;7.37;43.88;96472.28;5051726;28;20387;-77
2022/02/11 13:25:40;;;;;;;3.58;1.30;;;;;;;7.98;43.52;96477.25;5052345;28;20428;-76
2022/02/11 13:28:15;;;;;;;1.40;0.93;;;;;;;6.59;44.42;96489.38;5052166;28;20082;-75
2022/02/11 13:30:45;;;;;;;1.60;1.20;;;;;;;6.70;45.33;96485.81;5056537;28;20014;-76
2022/02/11 13:33:23;;;;;;;4.20;1.25;;;;;;;7.20;44.58;96488.25;5033719;28;20021;-76
2022/02/11 13:35:51;;;;;;;2.28;1.10;;;;;;;7.30;44.25;96509.50;5034167;28;20104;-77
2022/02/11 13:38:33;;;;;;;4.53;1.23;;;;;;;7.02;45.02;96483.31;5052453;28;20032;-77
2022/02/11 13:41:03;;;;;;;4.45;1.58;;;;;;;7.60;44.16;96494.19;5033619;28;20028;-76
2022/02/11 13:44:06;;;;;;;3.28;1.30;;;;;;;7.10;45.03;96495.28;5033568;28;20040;-77
2022/02/11 13:46:36;;;;;;;2.58;1.00;;;;;;;6.88;45.62;96495.31;5055553;28;20029;-77
2022/02/11 13:49:10;;;;;;;4.20;1.23;;;;;;;7.00;45.16;96496.75;5033433;28;20025;-74
2022/02/11 13:51:37;;;;;;;2.10;1.20;;;;;;;7.19;44.88;96501.72;5051195;28;20115;-73
2022/02/11 13:54:12;;;;;;;3.30;2.00;;;;;;;7.25;44.92;96480.34;5051474;28;20465;-75
2022/02/11 13:56:40;;;;;;;1.67;1.27;;;;;;;7.30;45.19;96488.34;5033389;28;20029;-75
2022/02/11 13:59:15;;;;;;;2.13;1.30;;;;;;;7.62;44.38;96494.72;5033623;28;20033;-78
2022/02/11 14:01:49;;;;;;;3.55;1.50;;;;;;;8.54;42.61;96504.94;5058087;28;20017;-73
2022/02/11 14:04:19;;;;;;;4.13;1.50;;;;;;;7.98;42.99;96490.50;5037190;28;20481;-73
2022/02/11 14:06:55;;;;;;;2.10;1.10;;;;;;;7.27;45.17;96511.88;5051517;28;20029;-75
2022/02/11 14:09:32;;;;;;;4.97;1.30;;;;;;;7.02;45.36;96515.84;5051038;28;20024;-73
2022/02/11 14:11:58;;;;;;;4.90;1.50;;;;;;;6.85;45.29;96486.00;5051133;28;20028;-73
2022/02/11 14:14:24;;;;;;;3.42;0.90;;;;;;;7.25;44.31;96484.84;5051360;28;20473;-74
2022/02/11 14:16:53;;;;;;;2.28;1.20;;;;;;;7.62;44.48;96478.84;5054190;28;20036;-75
2022/02/11 14:19:27;;;;;;;5.65;1.85;;;;;;;8.46;42.51;96523.22;5032911;28;20052;-73
2022/02/11 14:22:17;;;;;;;3.08;1.23;;;;;;;7.60;43.90;96537.34;5050655;28;20021;-71
2022/02/11 14:24:42;;;;;;;3.35;1.40;;;;;;;7.87;43.30;96521.44;5033274;28;20389;-74
2022/02/11 14:27:08;;;;;;;2.88;0.90;;;;;;;7.35;43.08;96524.66;5032785;28;20040;-74
2022/02/11 14:29:34;;;;;;;3.97;1.27;;;;;;;7.21;44.42;96542.75;5050302;28;20025;-75
2022/02/11 14:32:00;;;;;;;2.65;1.15;;;;;;;7.59;43.47;96542.91;5052573;28;20036;-73
2022/02/11 14:34:26;;;;;;;3.38;1.33;;;;;;;7.99;42.99;96551.22;5032300;28;20035;-73
2022/02/11 14:36:52;;;;;;;2.45;1.08;;;;;;;7.34;42.75;96517.75;5050751;28;20391;-79
2022/02/11 14:39:18;;;;;;;5.70;1.35;;;;;;;8.52;41.38;96522.97;5050172;28;20025;-72
2022/02/11 14:41:47;;;;;;;4.25;1.30;;;;;;;8.59;40.77;96552.72;5032341;28;20036;-73
2022/02/11 14:44:16;;;;;;;2.88;1.38;;;;;;;7.66;42.80;96504.56;5032479;28;20032;-74
2022/02/11 14:46:42;;;;;;;2.05;1.40;;;;;;;7.87;42.36;96547.91;5034397;28;20465;-73
2022/02/11 14:49:07;;;;;;;4.25;1.60;;;;;;;8.00;42.67;96558.09;5050335;28;20116;-73
2022/02/11 14:51:34;;;;;;;3.78;1.50;;;;;;;8.27;41.45;96554.59;5032210;28;20083;-73
2022/02/11 14:54:03;;;;;;;7.18;1.30;;;;;;;8.71;41.20;96526.00;5050784;28;20057;-74
2022/02/11 14:56:29;;;;;;;0.85;0.57;;;;;;;7.32;43.40;96537.56;5050580;28;20021;-73
2022/02/11 14:58:55;;;;;;;4.03;1.30;;;;;;;7.86;42.43;96530.44;5050427;28;20477;-74
2022/02/11 15:01:20;;;;;;;5.57;1.08;;;;;;;7.90;42.91;96544.78;5051460;28;20021;-75
2022/02/11 15:03:46;;;;;;;5.15;1.00;;;;;;;7.19;44.03;96568.69;5050268;28;20079;-70
2022/02/11 15:06:11;;;;;;;2.85;1.10;;;;;;;7.19;44.20;96539.56;5049989;28;20033;-70
2022/02/11 15:08:36;;;;;;;2.65;0.55;;;;;;;7.39;42.38;96540.84;5050175;28;20116;-70
2022/02/11 15:11:02;;;;;;;3.40;1.42;;;;;;;7.16;44.21;96574.47;5032570;28;20029;-70
2022/02/11 15:13:27;;;;;;;1.67;1.00;;;;;;;7.99;42.45;96561.81;5032797;28;20029;-70
2022/02/11 15:15:53;;;;;;;4.60;1.50;;;;;;;7.48;43.50;96556.03;5033009;28;20028;-74
2022/02/11 15:18:18;;;;;;;2.97;1.30;;;;;;;7.65;42.69;96579.78;5040578;28;20025;-74